Time;durP1;ratioP1;P1;durP2;ratioP2;P2;SDS_P1;SDS_P2;PMS_P1;PMS_P2;Temp;Humidity;BMP_temperature;BMP_pressure;BME280_temperature;BME280_humidity;BME280_pressure;Samples;Min_cycle;Max_cycle;Signal;HPM_P1;HPM_P2
2021/05/25 00:04:19;;;;;;;6;3.4;;;;;;;12.95;100;98266;;;;
2021/05/25 00:14:20;;;;;;;6.7;3.8;;;;;;;12.85;100;98272.6;;;;
2021/05/25 00:24:17;;;;;;;7.5;3.3;;;;;;;12.91;100;98281.33;;;;
2021/05/25 00:34:16;;;;;;;4.4;3;;;;;;;12.83;100;98276.77;;;;
2021/05/25 00:44:15;;;;;;;5.8;3.4;;;;;;;12.89;100;98284.34;;;;
2021/05/25 00:54:14;;;;;;;6.9;3;;;;;;;12.98;100;98262.66;;;;
2021/05/25 01:04:13;;;;;;;8;3.7;;;;;;;12.72;100;98248.52;;;;
2021/05/25 01:14:13;;;;;;;7.7;3.6;;;;;;;12.54;100;98231.63;;;;
2021/05/25 01:24:11;;;;;;;8.6;4;;;;;;;12.41;100;98202.95;;;;
2021/05/25 01:34:10;;;;;;;5.6;3.1;;;;;;;12.48;100;98190.5;;;;
2021/05/25 01:44:09;;;;;;;6.1;3.9;;;;;;;12.3;100;98183.63;;;;
2021/05/25 01:54:08;;;;;;;6.4;3.5;;;;;;;12.55;100;98219.7;;;;
2021/05/25 02:04:07;;;;;;;6.5;3.9;;;;;;;12.52;100;98279.83;;;;
2021/05/25 02:14:06;;;;;;;5.3;3.4;;;;;;;12.42;100;98224.25;;;;
2021/05/25 02:24:05;;;;;;;6;3.3;;;;;;;12.33;100;98252.42;;;;
2021/05/25 02:34:04;;;;;;;8.5;3.8;;;;;;;12.09;100;98218.71;;;;
2021/05/25 02:44:03;;;;;;;5.2;2.7;;;;;;;12.25;100;98218.92;;;;
2021/05/25 02:54:02;;;;;;;6;2.7;;;;;;;11.87;100;98348.58;;;;
2021/05/25 03:04:02;;;;;;;4.7;2.5;;;;;;;11.77;100;98356.22;;;;
2021/05/25 03:14:00;;;;;;;3.8;2.1;;;;;;;11.73;100;98310.17;;;;
2021/05/25 03:23:59;;;;;;;6.6;3.7;;;;;;;11.67;100;98314.13;;;;
2021/05/25 03:33:58;;;;;;;5.3;3.3;;;;;;;11.77;100;98327.32;;;;
2021/05/25 03:43:57;;;;;;;5.1;3.1;;;;;;;11.55;100;98297.81;;;;
2021/05/25 03:53:56;;;;;;;4.7;2.2;;;;;;;11.94;100;98297.56;;;;
2021/05/25 04:03:55;;;;;;;7.7;3.5;;;;;;;12.13;100;98263.98;;;;
2021/05/25 04:13:54;;;;;;;5.5;2.7;;;;;;;12;100;98238.78;;;;
2021/05/25 04:23:53;;;;;;;3.4;1.9;;;;;;;12.21;100;98273.96;;;;
2021/05/25 04:33:52;;;;;;;8.1;4.4;;;;;;;12.32;100;98261.67;;;;
2021/05/25 04:43:51;;;;;;;4.6;2.5;;;;;;;12.24;100;98259.8;;;;
2021/05/25 04:53:50;;;;;;;8.1;3.5;;;;;;;12.48;100;98273.49;;;;
2021/05/25 05:03:49;;;;;;;5.6;3.3;;;;;;;12.49;100;98269.67;;;;
2021/05/25 05:13:48;;;;;;;5.1;3.2;;;;;;;12.59;100;98277.41;;;;
2021/05/25 05:23:47;;;;;;;3.9;2.3;;;;;;;12.63;100;98277.55;;;;
2021/05/25 05:33:46;;;;;;;6.5;2.6;;;;;;;12.56;100;98288.88;;;;
2021/05/25 05:43:45;;;;;;;4.6;2.4;;;;;;;12.63;100;98286.45;;;;
2021/05/25 05:53:44;;;;;;;5.2;2.1;;;;;;;12.89;100;98286.25;;;;
2021/05/25 06:03:43;;;;;;;5.5;2;;;;;;;12.97;100;98305.14;;;;
2021/05/25 06:13:42;;;;;;;4.8;2;;;;;;;13.01;100;98297.95;;;;
2021/05/25 06:23:41;;;;;;;6.6;3.4;;;;;;;13.01;100;98280.93;;;;
2021/05/25 06:33:40;;;;;;;6.6;3.1;;;;;;;13.27;100;98286.14;;;;
2021/05/25 06:43:39;;;;;;;5;2.1;;;;;;;13.46;100;98281.83;;;;
2021/05/25 06:53:38;;;;;;;3.5;2;;;;;;;14.12;100;98273.62;;;;
2021/05/25 07:03:37;;;;;;;5;2.9;;;;;;;14.67;100;98277.69;;;;
2021/05/25 07:13:37;;;;;;;4.5;1.8;;;;;;;14.83;100;98282.05;;;;
2021/05/25 07:23:36;;;;;;;7.4;3.4;;;;;;;15;100;98270.93;;;;
2021/05/25 07:33:35;;;;;;;5.1;1.9;;;;;;;15.49;100;98289.78;;;;
2021/05/25 07:43:35;;;;;;;4.4;1.8;;;;;;;15.43;100;98310.16;;;;
2021/05/25 07:53:34;;;;;;;3.5;1.8;;;;;;;15.24;100;98320.88;;;;
2021/05/25 08:03:34;;;;;;;4;2.1;;;;;;;15.34;100;98313;;;;
2021/05/25 08:13:33;;;;;;;4.6;2;;;;;;;15.36;100;98321.62;;;;
2021/05/25 08:23:32;;;;;;;5.8;2.3;;;;;;;15.79;100;98329.03;;;;
2021/05/25 08:33:32;;;;;;;6.7;2.9;;;;;;;16.31;100;98334.29;;;;
2021/05/25 08:43:32;;;;;;;5.1;2.7;;;;;;;16.61;100;98345.53;;;;
2021/05/25 08:53:31;;;;;;;7.3;3.4;;;;;;;16.39;100;98365.14;;;;
2021/05/25 09:03:31;;;;;;;5.4;3;;;;;;;16.15;100;98384.34;;;;
2021/05/25 09:13:30;;;;;;;6.9;4.5;;;;;;;16.38;100;98383.39;;;;
2021/05/25 09:23:46;;;;;;;8.7;4.7;;;;;;;17.21;100;98382.31;;;;
2021/05/25 09:33:32;;;;;;;10.3;5.9;;;;;;;17.09;100;98390.58;;;;
2021/05/25 09:43:33;;;;;;;14.5;6;;;;;;;17.37;100;98387.7;;;;
2021/05/25 09:53:31;;;;;;;9.8;7.1;;;;;;;17.87;100;98387.61;;;;
2021/05/25 10:03:30;;;;;;;7.9;5.2;;;;;;;18.17;100;98389.72;;;;
2021/05/25 10:13:31;;;;;;;5.5;2.5;;;;;;;18.37;100;98383.06;;;;
2021/05/25 10:23:32;;;;;;;6.4;2.5;;;;;;;17.87;100;98395.8;;;;
2021/05/25 10:33:28;;;;;;;3.7;2.5;;;;;;;17.88;100;98407.47;;;;
2021/05/25 10:43:28;;;;;;;4.1;1.8;;;;;;;17.7;100;98404.38;;;;
2021/05/25 10:53:28;;;;;;;4.4;2.3;;;;;;;17.5;100;98400.83;;;;
2021/05/25 11:03:28;;;;;;;2.3;1.4;;;;;;;17.4;100;98406.05;;;;
2021/05/25 11:13:29;;;;;;;5.7;2.1;;;;;;;17.7;100;98420.73;;;;
2021/05/25 11:23:27;;;;;;;6.7;2.5;;;;;;;17.14;100;98424.93;;;;
2021/05/25 11:33:32;;;;;;;6.4;2.9;;;;;;;16.95;100;98428.37;;;;
2021/05/25 11:43:26;;;;;;;4.9;2.3;;;;;;;16.19;100;98442.33;;;;
2021/05/25 11:53:26;;;;;;;5.6;3.9;;;;;;;16.35;100;98437.7;;;;
2021/05/25 12:03:26;;;;;;;3.3;1.1;;;;;;;14.35;100;98483.53;;;;
2021/05/25 12:13:26;;;;;;;4.9;1.2;;;;;;;12.45;100;98531.72;;;;
2021/05/25 12:23:25;;;;;;;2.3;1.2;;;;;;;12.23;100;98555.42;;;;
2021/05/25 12:33:24;;;;;;;3.4;0.9;;;;;;;12.44;100;98550.95;;;;
2021/05/25 12:43:23;;;;;;;3.9;1.8;;;;;;;13.05;100;98539.64;;;;
2021/05/25 12:53:22;;;;;;;4.4;1.8;;;;;;;13.59;100;98553.44;;;;
2021/05/25 13:03:26;;;;;;;7.2;3;;;;;;;14.08;100;98558.05;;;;
2021/05/25 13:13:23;;;;;;;5.4;3.6;;;;;;;14.23;100;98564;;;;
2021/05/25 13:23:26;;;;;;;5.5;3.6;;;;;;;13.44;100;98573.74;;;;
2021/05/25 13:33:19;;;;;;;9.4;5.5;;;;;;;13.2;100;98583.56;;;;
2021/05/25 13:43:18;;;;;;;8.4;4.3;;;;;;;12.79;100;98603.86;;;;
2021/05/25 13:53:18;;;;;;;6;3.6;;;;;;;12.77;100;98614.22;;;;
2021/05/25 14:03:17;;;;;;;10.3;4;;;;;;;12.52;100;98621.24;;;;
2021/05/25 14:13:16;;;;;;;6;3;;;;;;;12.59;100;98629.67;;;;
2021/05/25 14:23:15;;;;;;;4.7;3;;;;;;;12.78;100;98610.38;;;;
2021/05/25 14:33:17;;;;;;;5.9;3.7;;;;;;;12.68;100;98616.13;;;;
2021/05/25 14:43:14;;;;;;;6.3;4.2;;;;;;;12.61;100;98613.91;;;;
2021/05/25 14:53:14;;;;;;;6.3;4;;;;;;;12.64;100;98604.35;;;;
2021/05/25 15:03:14;;;;;;;7.2;4.1;;;;;;;12.66;100;98612.95;;;;
2021/05/25 15:13:12;;;;;;;9;4.8;;;;;;;12.83;100;98614.84;;;;
2021/05/25 15:23:10;;;;;;;7.6;4.4;;;;;;;12.56;100;98614.05;;;;
2021/05/25 15:33:10;;;;;;;10.1;3.8;;;;;;;12.4;100;98599.45;;;;
2021/05/25 15:43:09;;;;;;;5.9;3.6;;;;;;;12.14;100;98595.95;;;;
2021/05/25 15:53:08;;;;;;;5.9;3.5;;;;;;;12.4;100;98571.63;;;;
2021/05/25 16:03:07;;;;;;;7.8;4.1;;;;;;;12.41;100;98584.83;;;;
2021/05/25 16:13:06;;;;;;;9.2;4.7;;;;;;;12.55;100;98585.45;;;;
2021/05/25 16:23:07;;;;;;;8;5;;;;;;;12.97;100;98586.48;;;;
2021/05/25 16:33:05;;;;;;;7.4;4.4;;;;;;;12.82;100;98614.03;;;;
2021/05/25 16:43:04;;;;;;;8.6;4.1;;;;;;;12.7;100;98622.02;;;;
2021/05/25 16:53:03;;;;;;;10;6.3;;;;;;;12.26;100;98622.33;;;;
2021/05/25 17:03:12;;;;;;;8;4.3;;;;;;;12.03;100;98621.69;;;;
2021/05/25 17:13:10;;;;;;;10.9;7.7;;;;;;;11.88;100;98635.63;;;;
2021/05/25 17:23:01;;;;;;;9.2;4.9;;;;;;;11.99;100;98626.13;;;;
2021/05/25 17:33:00;;;;;;;10;5.1;;;;;;;11.72;100;98637.98;;;;
2021/05/25 17:42:59;;;;;;;12.2;7.7;;;;;;;11.47;100;98669.14;;;;
2021/05/25 17:52:58;;;;;;;11.3;5.2;;;;;;;11.43;100;98672.77;;;;
2021/05/25 18:02:57;;;;;;;10.1;6.7;;;;;;;11.42;100;98684.69;;;;
2021/05/25 18:12:56;;;;;;;11;7.3;;;;;;;11.4;100;98673.39;;;;
2021/05/25 18:22:55;;;;;;;10;5.8;;;;;;;11.23;100;98673.3;;;;
2021/05/25 18:32:56;;;;;;;12.9;5.4;;;;;;;11.31;100;98656.37;;;;
2021/05/25 18:42:53;;;;;;;7.6;5.3;;;;;;;11.23;100;98675.99;;;;
2021/05/25 18:52:51;;;;;;;9.4;7.1;;;;;;;11;100;98680.63;;;;
2021/05/25 19:02:50;;;;;;;14.5;7.9;;;;;;;10.93;100;98713.39;;;;
2021/05/25 19:12:50;;;;;;;14.6;7.7;;;;;;;10.68;100;98724.8;;;;
2021/05/25 19:22:57;;;;;;;11.7;5.9;;;;;;;10.45;100;98718.55;;;;
2021/05/25 19:32:47;;;;;;;12.9;7.4;;;;;;;10.29;100;98716.5;;;;
2021/05/25 19:42:46;;;;;;;11.1;6.8;;;;;;;9.97;100;98723.58;;;;
2021/05/25 19:52:45;;;;;;;8.5;5.9;;;;;;;9.85;100;98731.38;;;;
2021/05/25 20:02:43;;;;;;;12.4;6;;;;;;;9.69;100;98746.19;;;;
2021/05/25 20:12:42;;;;;;;8.2;5.8;;;;;;;9.46;100;98739.09;;;;
2021/05/25 20:22:41;;;;;;;12.6;6.8;;;;;;;9.29;100;98734.28;;;;
2021/05/25 20:32:39;;;;;;;11.3;6.9;;;;;;;9.01;100;98749.52;;;;
2021/05/25 20:42:38;;;;;;;9.5;6.1;;;;;;;8.9;100;98729.27;;;;
2021/05/25 20:52:41;;;;;;;7.9;5;;;;;;;8.8;100;98745.55;;;;
2021/05/25 21:02:35;;;;;;;8;5.7;;;;;;;8.65;100;98755.7;;;;
2021/05/25 21:12:34;;;;;;;6.9;4.7;;;;;;;8.48;100;98765.07;;;;
2021/05/25 21:22:32;;;;;;;6.3;3.9;;;;;;;8.42;100;98779.66;;;;
2021/05/25 21:32:31;;;;;;;8.5;4.2;;;;;;;8.19;100;98791.17;;;;
2021/05/25 21:42:29;;;;;;;8.5;4;;;;;;;8.24;100;98793.02;;;;
2021/05/25 21:52:28;;;;;;;6.1;3.3;;;;;;;8.23;100;98792.2;;;;
2021/05/25 22:12:25;;;;;;;9.5;4.1;;;;;;;8.02;100;98794.33;;;;
2021/05/25 22:22:24;;;;;;;6.3;2.5;;;;;;;7.92;100;98783.7;;;;
2021/05/25 22:32:22;;;;;;;3.9;2.4;;;;;;;7.99;100;98780.68;;;;
2021/05/25 22:42:22;;;;;;;4.6;3.3;;;;;;;7.95;100;98790.38;;;;
2021/05/25 22:52:19;;;;;;;5.4;2.7;;;;;;;7.79;100;98792.44;;;;
2021/05/25 23:02:18;;;;;;;5.9;3.1;;;;;;;7.69;100;98783.69;;;;
2021/05/25 23:12:16;;;;;;;3.8;1.9;;;;;;;7.59;100;98798.01;;;;
2021/05/25 23:22:15;;;;;;;6.8;2.4;;;;;;;7.57;100;98802.84;;;;
2021/05/25 23:32:14;;;;;;;6.8;2.6;;;;;;;7.45;100;98780.97;;;;
2021/05/25 23:42:12;;;;;;;3.2;1.9;;;;;;;7.5;100;98810.41;;;;
2021/05/25 23:52:11;;;;;;;5.1;2.2;;;;;;;7.41;100;98817.47;;;;
